Time;durP1;ratioP1;P1;durP2;ratioP2;P2;SDS_P1;SDS_P2;PMS_P1;PMS_P2;Temp;Humidity;BMP_temperature;BMP_pressure;BME280_temperature;BME280_humidity;BME280_pressure;Samples;Min_cycle;Max_cycle;Signal;HPM_P1;HPM_P2
2022/12/22 03:27:13;;;;;;;;;;;11.70;99.90;;;;;;7346564;19;109332;-86
2022/12/22 03:29:40;;;;;;;;;;;11.60;99.90;;;;;;7338753;19;110535;-86
2022/12/22 03:32:07;;;;;;;;;;;11.60;99.90;;;;;;7338798;19;108841;-86
2022/12/22 03:34:33;;;;;;;;;;;11.70;99.90;;;;;;7334776;19;112344;-86
2022/12/22 03:37:00;;;;;;;;;;;11.70;99.90;;;;;;7337816;19;109175;-86
2022/12/22 03:39:27;;;;;;;;;;;11.70;99.90;;;;;;7335931;19;108556;-86
2022/12/22 03:47:25;;;;;;;;;;;11.60;99.90;;;;;;7341625;19;109754;-86
2022/12/22 03:49:52;;;;;;;;;;;11.60;99.90;;;;;;7338599;19;110818;-85
2022/12/22 03:52:19;;;;;;;;;;;11.50;99.90;;;;;;7339216;19;109531;-85
2022/12/22 03:54:46;;;;;;;;;;;11.50;99.90;;;;;;7336575;19;109646;-86
2022/12/22 03:57:13;;;;;;;;;;;11.60;99.90;;;;;;7337723;19;109819;-85
2022/12/22 03:59:39;;;;;;;;;;;11.60;99.90;;;;;;7338397;19;109328;-86
2022/12/22 04:02:06;;;;;;;;;;;11.50;99.90;;;;;;7342125;19;109632;-86
2022/12/22 04:04:33;;;;;;;;;;;11.50;99.90;;;;;;7342632;19;110708;-85
2022/12/22 04:07:00;;;;;;;;;;;11.50;99.90;;;;;;7338464;19;108864;-86
2022/12/22 04:09:28;;;;;;;;;;;11.40;99.90;;;;;;7343765;19;109836;-86
2022/12/22 04:14:40;;;;;;;;;;;11.40;99.90;;;;;;7339411;19;108754;-86
2022/12/22 04:17:08;;;;;;;;;;;11.40;99.90;;;;;;7336751;19;111442;-85
2022/12/22 04:19:35;;;;;;;;;;;11.50;99.90;;;;;;7335038;19;109789;-86
2022/12/22 04:22:02;;;;;;;;;;;11.50;99.90;;;;;;7336498;19;110155;-86
2022/12/22 04:24:29;;;;;;;;;;;11.50;99.90;;;;;;7336919;19;112854;-86
2022/12/22 04:26:56;;;;;;;;;;;11.60;99.90;;;;;;7337246;19;110700;-86
2022/12/22 04:29:25;;;;;;;;;;;11.60;99.90;;;;;;7338415;19;109304;-86
2022/12/22 04:31:52;;;;;;;;;;;11.60;99.90;;;;;;7342588;19;110491;-86
2022/12/22 04:34:19;;;;;;;;;;;11.60;99.90;;;;;;7334184;19;109356;-85
2022/12/22 04:36:46;;;;;;;;;;;11.60;99.90;;;;;;7335461;19;110911;-86
2022/12/22 04:39:13;;;;;;;;;;;11.60;99.90;;;;;;7334730;19;109963;-86
2022/12/22 04:41:40;;;;;;;;;;;11.50;99.90;;;;;;7336928;19;109372;-86
2022/12/22 04:44:06;;;;;;;;;;;11.50;99.90;;;;;;7333209;19;109230;-85
2022/12/22 04:46:34;;;;;;;;;;;11.50;99.90;;;;;;7335590;19;110248;-86
2022/12/22 04:49:00;;;;;;;;;;;11.50;99.90;;;;;;7336796;19;109794;-86
2022/12/22 04:51:27;;;;;;;;;;;11.50;99.90;;;;;;7333341;19;110114;-86
2022/12/22 04:53:54;;;;;;;;;;;11.50;99.90;;;;;;7343064;19;109989;-85
2022/12/22 04:56:21;;;;;;;;;;;11.50;99.90;;;;;;7335622;19;110030;-84
2022/12/22 04:58:48;;;;;;;;;;;11.50;99.90;;;;;;7335397;19;109527;-86
2022/12/22 05:01:16;;;;;;;;;;;11.50;99.90;;;;;;7334031;19;109926;-86
2022/12/22 05:03:43;;;;;;;;;;;11.50;99.90;;;;;;7337179;19;111446;-86
2022/12/22 05:06:10;;;;;;;;;;;11.50;99.90;;;;;;7339994;19;108702;-85
2022/12/22 05:08:37;;;;;;;;;;;11.50;99.90;;;;;;7334788;19;109645;-86
2022/12/22 05:11:04;;;;;;;;;;;11.50;99.90;;;;;;7336623;19;110832;-86
2022/12/22 05:13:32;;;;;;;;;;;11.50;99.90;;;;;;7333461;19;110013;-86
2022/12/22 05:16:09;;;;;;;;;;;11.50;99.90;;;;;;7340361;19;111223;-86
2022/12/22 05:18:37;;;;;;;;;;;11.50;99.90;;;;;;7336289;19;109739;-86
2022/12/22 05:21:09;;;;;;;;;;;11.50;99.90;;;;;;7334056;19;109238;-85
2022/12/22 05:23:36;;;;;;;;;;;11.50;99.90;;;;;;7333281;19;110309;-86
2022/12/22 05:26:03;;;;;;;;;;;11.50;99.90;;;;;;7332862;19;108860;-85
2022/12/22 05:28:31;;;;;;;;;;;11.50;99.90;;;;;;7335681;19;109363;-85
2022/12/22 05:31:02;;;;;;;;;;;11.40;99.90;;;;;;7333636;19;108800;-86
2022/12/22 05:33:29;;;;;;;;;;;11.40;99.90;;;;;;7332302;19;109189;-85
2022/12/22 05:35:56;;;;;;;;;;;11.50;99.90;;;;;;7333761;19;108981;-86
2022/12/22 05:38:23;;;;;;;;;;;11.40;99.90;;;;;;7336411;19;110155;-86
2022/12/22 05:40:50;;;;;;;;;;;11.40;99.90;;;;;;7332855;19;109640;-85
2022/12/22 05:43:17;;;;;;;;;;;11.40;99.90;;;;;;7329737;19;109762;-86
2022/12/22 05:45:44;;;;;;;;;;;11.40;99.90;;;;;;7333027;19;108722;-85
2022/12/22 05:48:11;;;;;;;;;;;11.40;99.90;;;;;;7335449;19;109031;-85
2022/12/22 05:50:38;;;;;;;;;;;11.40;99.90;;;;;;7335562;19;110610;-85
2022/12/22 05:53:06;;;;;;;;;;;11.40;99.90;;;;;;7333275;19;109795;-85
2022/12/22 05:55:33;;;;;;;;;;;11.40;99.90;;;;;;7334125;19;108848;-86
2022/12/22 05:58:00;;;;;;;;;;;11.40;99.90;;;;;;7336469;19;110316;-85
2022/12/22 06:00:28;;;;;;;;;;;11.40;99.90;;;;;;7332283;19;109608;-86
2022/12/22 06:02:55;;;;;;;;;;;11.40;99.90;;;;;;7333782;19;109704;-86
2022/12/22 06:05:23;;;;;;;;;;;11.40;99.90;;;;;;7334640;19;109161;-85
2022/12/22 06:07:50;;;;;;;;;;;11.40;99.90;;;;;;7332604;19;110430;-85
2022/12/22 06:10:17;;;;;;;;;;;11.40;99.90;;;;;;7333327;19;110586;-85
2022/12/22 06:12:44;;;;;;;;;;;11.40;99.90;;;;;;7332775;19;108807;-86
2022/12/22 06:15:11;;;;;;;;;;;11.40;99.90;;;;;;7333739;19;108846;-85
2022/12/22 06:17:39;;;;;;;;;;;11.40;99.90;;;;;;7332112;19;113586;-86
2022/12/22 06:20:11;;;;;;;;;;;11.40;99.90;;;;;;7337765;19;109437;-86
2022/12/22 06:22:38;;;;;;;;;;;11.40;99.90;;;;;;7334532;19;110778;-85
2022/12/22 06:25:05;;;;;;;;;;;11.40;99.90;;;;;;7334660;19;109717;-86
2022/12/22 06:27:32;;;;;;;;;;;11.40;99.90;;;;;;7335254;19;108770;-85
2022/12/22 06:29:59;;;;;;;;;;;11.40;99.90;;;;;;7340022;19;110050;-86
2022/12/22 06:32:26;;;;;;;;;;;11.40;99.90;;;;;;7336822;19;109774;-85
2022/12/22 06:34:53;;;;;;;;;;;11.40;99.90;;;;;;7337955;19;109386;-86
2022/12/22 06:37:19;;;;;;;;;;;11.40;99.90;;;;;;7337707;19;113091;-86
2022/12/22 06:39:46;;;;;;;;;;;11.40;99.90;;;;;;7332957;19;112786;-86
2022/12/22 06:44:59;;;;;;;;;;;11.40;99.90;;;;;;7334632;19;108925;-86
2022/12/22 06:47:26;;;;;;;;;;;11.40;99.90;;;;;;7334416;19;109741;-86
2022/12/22 06:49:53;;;;;;;;;;;11.40;99.90;;;;;;7333609;19;110305;-86
2022/12/22 06:52:20;;;;;;;;;;;11.40;99.90;;;;;;7334441;19;108458;-86
2022/12/22 06:54:46;;;;;;;;;;;11.40;99.90;;;;;;7334492;19;109570;-86
2022/12/22 06:57:13;;;;;;;;;;;11.40;99.90;;;;;;7337061;19;110113;-85
2022/12/22 06:59:41;;;;;;;;;;;11.40;99.90;;;;;;7343968;19;108819;-86
2022/12/22 07:02:11;;;;;;;;;;;11.40;99.90;;;;;;7339198;19;109206;-86
2022/12/22 07:04:38;;;;;;;;;;;11.40;99.90;;;;;;7348614;19;109689;-86
2022/12/22 07:07:05;;;;;;;;;;;11.40;99.90;;;;;;7344291;19;109242;-86
2022/12/22 07:09:32;;;;;;;;;;;11.40;99.90;;;;;;7341834;19;112890;-87
2022/12/22 07:11:59;;;;;;;;;;;11.40;99.90;;;;;;7345000;19;109718;-86
2022/12/22 07:14:25;;;;;;;;;;;11.40;99.90;;;;;;7343074;19;109264;-85
2022/12/22 07:16:52;;;;;;;;;;;11.40;99.90;;;;;;7343577;19;109564;-84
2022/12/22 07:19:19;;;;;;;;;;;11.40;99.90;;;;;;7341547;19;108533;-86
2022/12/22 07:21:47;;;;;;;;;;;11.40;99.90;;;;;;7341657;19;108245;-85
2022/12/22 07:24:15;;;;;;;;;;;11.40;99.90;;;;;;7344353;19;112883;-86
2022/12/22 07:26:42;;;;;;;;;;;11.40;99.90;;;;;;7348160;19;108956;-85
2022/12/22 07:29:09;;;;;;;;;;;11.40;99.90;;;;;;7343050;19;109747;-86
2022/12/22 07:31:36;;;;;;;;;;;11.30;99.90;;;;;;7343951;19;109326;-85
2022/12/22 07:34:04;;;;;;;;;;;11.30;99.90;;;;;;7344108;19;109221;-85
2022/12/22 07:36:30;;;;;;;;;;;11.30;99.90;;;;;;7343421;19;110553;-86
2022/12/22 07:38:57;;;;;;;;;;;11.30;99.90;;;;;;7340706;19;108965;-86
2022/12/22 07:44:10;;;;;;;;;;;11.30;99.90;;;;;;7343785;19;109814;-87
2022/12/22 07:46:37;;;;;;;;;;;11.30;99.90;;;;;;7345111;19;108523;-87
2022/12/22 07:51:51;;;;;;;;;;;11.30;99.90;;;;;;7340756;19;109160;-85
2022/12/22 07:54:18;;;;;;;;;;;11.20;99.90;;;;;;7344132;19;109718;-86
2022/12/22 07:56:45;;;;;;;;;;;11.20;99.90;;;;;;7345988;19;110397;-86
2022/12/22 07:59:12;;;;;;;;;;;11.20;99.90;;;;;;7343304;19;108725;-86
2022/12/22 08:01:40;;;;;;;;;;;11.10;99.90;;;;;;7344806;19;109837;-86
2022/12/22 08:04:08;;;;;;;;;;;11.10;99.90;;;;;;7340998;19;110518;-86
2022/12/22 08:06:37;;;;;;;;;;;11.10;99.90;;;;;;7343774;19;108544;-86
2022/12/22 08:09:05;;;;;;;;;;;11.00;99.90;;;;;;7346077;19;109355;-86
2022/12/22 08:11:32;;;;;;;;;;;11.00;99.90;;;;;;7342427;19;109145;-86
2022/12/22 08:13:59;;;;;;;;;;;10.90;99.90;;;;;;7345572;19;108985;-86
2022/12/22 08:16:27;;;;;;;;;;;10.90;99.90;;;;;;7342775;19;112198;-85
2022/12/22 08:18:55;;;;;;;;;;;10.90;99.90;;;;;;7341519;19;109644;-85
2022/12/22 08:21:22;;;;;;;;;;;10.80;99.90;;;;;;7340843;19;111802;-85
2022/12/22 08:23:49;;;;;;;;;;;10.80;99.90;;;;;;7344517;19;109831;-86
2022/12/22 08:26:18;;;;;;;;;;;10.70;99.90;;;;;;7342285;19;108419;-86
2022/12/22 08:28:53;;;;;;;;;;;10.70;99.90;;;;;;7343327;19;109654;-86
2022/12/22 08:31:21;;;;;;;;;;;10.70;99.90;;;;;;7343239;19;109664;-86
2022/12/22 08:33:48;;;;;;;;;;;10.70;99.90;;;;;;7342279;19;109471;-86
2022/12/22 08:36:15;;;;;;;;;;;10.60;99.90;;;;;;7340638;19;110732;-86
2022/12/22 08:38:42;;;;;;;;;;;10.60;99.90;;;;;;7340554;19;109432;-86
2022/12/22 08:41:11;;;;;;;;;;;10.60;99.90;;;;;;7342212;19;111567;-86
2022/12/22 08:43:38;;;;;;;;;;;10.50;99.90;;;;;;7341781;19;110309;-85
2022/12/22 08:46:05;;;;;;;;;;;10.50;99.90;;;;;;7341559;19;109238;-86
2022/12/22 08:48:32;;;;;;;;;;;10.50;99.90;;;;;;7341064;19;110287;-86
2022/12/22 08:50:59;;;;;;;;;;;10.60;99.90;;;;;;7343791;19;110267;-86
2022/12/22 08:53:25;;;;;;;;;;;10.60;99.90;;;;;;7345553;19;108877;-86
2022/12/22 08:56:12;;;;;;;;;;;10.60;99.90;;;;;;7341091;19;112362;-86
2022/12/22 08:58:39;;;;;;;;;;;10.60;99.90;;;;;;7342066;19;108359;-86
2022/12/22 09:01:06;;;;;;;;;;;10.60;99.90;;;;;;7341212;19;109309;-86
2022/12/22 09:03:33;;;;;;;;;;;10.60;99.90;;;;;;7338568;19;111147;-86
2022/12/22 09:06:00;;;;;;;;;;;10.70;99.90;;;;;;7339558;19;108932;-86
2022/12/22 09:08:27;;;;;;;;;;;10.60;99.90;;;;;;7339001;19;109810;-86
2022/12/22 09:10:54;;;;;;;;;;;10.60;99.90;;;;;;7341684;19;110264;-85
2022/12/22 09:13:21;;;;;;;;;;;10.60;99.90;;;;;;7340134;19;110306;-85
2022/12/22 09:15:48;;;;;;;;;;;10.60;99.90;;;;;;7346977;19;109299;-86
2022/12/22 09:18:15;;;;;;;;;;;10.60;99.90;;;;;;7340493;19;109214;-86
2022/12/22 09:20:42;;;;;;;;;;;10.60;99.90;;;;;;7338298;19;108737;-86
2022/12/22 09:23:09;;;;;;;;;;;10.60;99.90;;;;;;7340928;19;110143;-85
2022/12/22 09:25:35;;;;;;;;;;;10.60;99.90;;;;;;7341261;19;108509;-85
2022/12/22 09:28:05;;;;;;;;;;;10.70;99.90;;;;;;7341832;19;108927;-85
2022/12/22 09:30:32;;;;;;;;;;;10.70;99.90;;;;;;7338954;19;110224;-85
2022/12/22 09:32:59;;;;;;;;;;;10.70;99.90;;;;;;7338892;19;113284;-87
2022/12/22 09:35:26;;;;;;;;;;;10.70;99.90;;;;;;7341356;19;109262;-86
2022/12/22 09:37:53;;;;;;;;;;;10.70;99.90;;;;;;7345771;19;112174;-87
2022/12/22 09:40:21;;;;;;;;;;;10.80;99.90;;;;;;7341163;19;111248;-85
2022/12/22 09:42:48;;;;;;;;;;;10.90;99.90;;;;;;7338978;19;110812;-83
2022/12/22 09:45:18;;;;;;;;;;;10.80;99.90;;;;;;7340219;19;110641;-83
2022/12/22 09:47:52;;;;;;;;;;;10.80;99.90;;;;;;7337620;19;109381;-83
2022/12/22 09:50:22;;;;;;;;;;;10.80;99.90;;;;;;7335722;19;113083;-83
2022/12/22 09:53:00;;;;;;;;;;;10.80;99.90;;;;;;7335914;19;108568;-83
2022/12/22 09:55:27;;;;;;;;;;;10.80;99.90;;;;;;7336188;19;109670;-83
2022/12/22 09:57:54;;;;;;;;;;;10.80;99.90;;;;;;7333629;19;110358;-83
2022/12/22 10:00:24;;;;;;;;;;;10.80;99.90;;;;;;7344474;19;108482;-83
2022/12/22 10:03:08;;;;;;;;;;;10.80;99.90;;;;;;7335211;19;110635;-83
2022/12/22 10:05:43;;;;;;;;;;;10.80;99.90;;;;;;7339882;19;109262;-83
2022/12/22 10:08:11;;;;;;;;;;;10.80;99.90;;;;;;7334425;19;109802;-84
2022/12/22 10:10:39;;;;;;;;;;;10.70;99.90;;;;;;7337664;19;109657;-84
2022/12/22 10:13:10;;;;;;;;;;;10.70;99.90;;;;;;7339371;19;109131;-84
2022/12/22 10:15:40;;;;;;;;;;;10.70;99.90;;;;;;7342439;19;111270;-84
2022/12/22 10:18:15;;;;;;;;;;;10.80;99.90;;;;;;7340157;19;108855;-84
2022/12/22 10:20:46;;;;;;;;;;;10.80;99.90;;;;;;7343643;19;108980;-83
2022/12/22 10:23:23;;;;;;;;;;;10.80;99.90;;;;;;7338243;19;110307;-84
2022/12/22 10:25:53;;;;;;;;;;;10.80;99.90;;;;;;7339419;19;108483;-84
2022/12/22 10:28:42;;;;;;;;;;;10.80;99.90;;;;;;7339089;19;109190;-83
2022/12/22 10:31:11;;;;;;;;;;;10.80;99.90;;;;;;7338372;19;109646;-84
2022/12/22 10:33:39;;;;;;;;;;;10.80;99.90;;;;;;7338087;19;109347;-84
2022/12/22 10:36:13;;;;;;;;;;;10.80;99.90;;;;;;7338714;19;109132;-84
2022/12/22 10:39:01;;;;;;;;;;;10.90;99.90;;;;;;7338596;19;113485;-84
2022/12/22 10:41:30;;;;;;;;;;;10.80;99.90;;;;;;7335741;19;109272;-83
2022/12/22 10:44:05;;;;;;;;;;;10.90;99.90;;;;;;7342335;19;109676;-84
2022/12/22 10:46:48;;;;;;;;;;;10.90;99.90;;;;;;7337976;19;108424;-84
2022/12/22 10:49:18;;;;;;;;;;;11.00;99.90;;;;;;7338847;19;108790;-84
2022/12/22 10:51:47;;;;;;;;;;;11.00;99.90;;;;;;7337173;19;110378;-84
2022/12/22 10:54:28;;;;;;;;;;;11.00;99.90;;;;;;7337658;19;110716;-84
2022/12/22 10:57:19;;;;;;;;;;;11.00;99.90;;;;;;7340926;19;109355;-84
2022/12/22 10:59:48;;;;;;;;;;;11.00;99.90;;;;;;7338097;19;110458;-84
2022/12/22 11:02:25;;;;;;;;;;;11.10;99.90;;;;;;7337387;19;110721;-85
2022/12/22 11:04:52;;;;;;;;;;;11.10;99.90;;;;;;7338248;19;110974;-84
2022/12/22 11:07:20;;;;;;;;;;;11.10;99.90;;;;;;7344216;19;113828;-85
2022/12/22 11:09:47;;;;;;;;;;;11.20;99.90;;;;;;7336396;19;111564;-84
2022/12/22 11:12:33;;;;;;;;;;;11.20;99.90;;;;;;7340119;19;110148;-84
2022/12/22 11:15:04;;;;;;;;;;;11.20;99.90;;;;;;7335925;19;113509;-84
2022/12/22 11:17:46;;;;;;;;;;;11.20;99.90;;;;;;7337697;19;112494;-85
2022/12/22 11:20:25;;;;;;;;;;;11.30;99.90;;;;;;7336138;19;109520;-84
2022/12/22 11:22:58;;;;;;;;;;;11.30;99.90;;;;;;7338602;19;108853;-84
2022/12/22 11:25:44;;;;;;;;;;;11.30;99.90;;;;;;7337631;19;109937;-84
2022/12/22 11:28:30;;;;;;;;;;;11.30;99.90;;;;;;7334953;19;110753;-85
2022/12/22 11:31:07;;;;;;;;;;;11.40;99.90;;;;;;7343887;19;108777;-85
2022/12/22 11:33:37;;;;;;;;;;;11.40;99.90;;;;;;7336923;19;115797;-84
2022/12/22 11:36:08;;;;;;;;;;;11.30;99.90;;;;;;7337083;19;108506;-85
2022/12/22 11:38:45;;;;;;;;;;;11.30;99.90;;;;;;7337613;19;109079;-85
2022/12/22 11:41:25;;;;;;;;;;;11.40;99.90;;;;;;7332401;19;110825;-85
2022/12/22 11:44:11;;;;;;;;;;;11.40;99.90;;;;;;7340698;19;108966;-84
2022/12/22 11:47:16;;;;;;;;;;;11.40;99.90;;;;;;7347504;19;108846;-85
2022/12/22 11:50:00;;;;;;;;;;;11.40;99.90;;;;;;7339645;19;110493;-84
2022/12/22 11:52:56;;;;;;;;;;;11.40;99.90;;;;;;7338756;19;110360;-85
2022/12/22 11:55:35;;;;;;;;;;;11.40;99.90;;;;;;7344902;19;109915;-85
2022/12/22 11:58:21;;;;;;;;;;;11.40;99.90;;;;;;7334904;19;109751;-84
2022/12/22 12:00:54;;;;;;;;;;;11.30;99.90;;;;;;7337754;19;109869;-84
2022/12/22 12:03:49;;;;;;;;;;;11.30;99.90;;;;;;7338291;19;112402;-84
2022/12/22 12:06:16;;;;;;;;;;;11.30;99.90;;;;;;7339589;19;108494;-84
2022/12/22 12:08:43;;;;;;;;;;;11.20;99.90;;;;;;7340394;19;109183;-85
2022/12/22 12:11:19;;;;;;;;;;;11.20;99.90;;;;;;7339684;19;109499;-84
2022/12/22 12:13:49;;;;;;;;;;;11.20;99.90;;;;;;7339720;19;109394;-84
2022/12/22 12:16:27;;;;;;;;;;;11.20;99.90;;;;;;7345645;19;108728;-85
2022/12/22 12:18:57;;;;;;;;;;;11.20;99.90;;;;;;7340442;19;108681;-85
2022/12/22 12:21:41;;;;;;;;;;;11.30;99.90;;;;;;7339513;19;109208;-85
2022/12/22 12:24:28;;;;;;;;;;;11.30;99.90;;;;;;7341485;19;110303;-85
2022/12/22 12:27:04;;;;;;;;;;;11.30;99.90;;;;;;7341263;19;108724;-84
2022/12/22 12:29:37;;;;;;;;;;;11.40;99.90;;;;;;7342541;19;108571;-84
2022/12/22 12:32:22;;;;;;;;;;;11.40;99.90;;;;;;7343337;19;111550;-85
2022/12/22 12:34:55;;;;;;;;;;;11.30;99.90;;;;;;7344086;19;108667;-85
2022/12/22 12:37:42;;;;;;;;;;;11.40;99.90;;;;;;7342510;19;109134;-84
2022/12/22 12:40:15;;;;;;;;;;;11.40;99.90;;;;;;7348435;19;114172;-84
2022/12/22 12:42:43;;;;;;;;;;;11.40;99.90;;;;;;7344371;19;109411;-83
2022/12/22 12:45:29;;;;;;;;;;;11.50;99.90;;;;;;7339994;19;110600;-85
2022/12/22 12:48:32;;;;;;;;;;;11.60;99.90;;;;;;7342797;19;108425;-86
2022/12/22 12:50:59;;;;;;;;;;;11.60;99.90;;;;;;7339508;19;109466;-85
2022/12/22 12:53:26;;;;;;;;;;;11.70;99.90;;;;;;7336889;19;109431;-85
2022/12/22 12:55:53;;;;;;;;;;;11.70;99.90;;;;;;7339084;19;109038;-85
2022/12/22 12:58:38;;;;;;;;;;;11.70;99.90;;;;;;7338133;19;109110;-85
2022/12/22 13:01:05;;;;;;;;;;;11.70;99.90;;;;;;7338156;19;110288;-85
2022/12/22 13:03:33;;;;;;;;;;;11.70;99.90;;;;;;7343501;19;108566;-85
2022/12/22 13:06:39;;;;;;;;;;;11.70;99.90;;;;;;7338456;19;112294;-85
2022/12/22 13:09:18;;;;;;;;;;;11.80;99.90;;;;;;7337924;19;109102;-85
2022/12/22 13:12:23;;;;;;;;;;;11.70;99.90;;;;;;7337914;19;111043;-85
2022/12/22 13:14:54;;;;;;;;;;;11.70;99.90;;;;;;7338567;19;110609;-85
2022/12/22 13:17:46;;;;;;;;;;;11.80;99.90;;;;;;7338800;19;108636;-84
2022/12/22 13:20:17;;;;;;;;;;;11.80;99.90;;;;;;7338924;19;109437;-85
2022/12/22 13:22:44;;;;;;;;;;;11.80;99.90;;;;;;7337598;19;110534;-85
2022/12/22 13:25:14;;;;;;;;;;;11.80;99.90;;;;;;7339073;19;108754;-85
2022/12/22 13:27:41;;;;;;;;;;;11.70;99.90;;;;;;7347910;19;109202;-86
2022/12/22 13:30:13;;;;;;;;;;;11.70;99.90;;;;;;7341695;19;108582;-85
2022/12/22 13:32:40;;;;;;;;;;;11.70;99.90;;;;;;7343008;19;109111;-86
2022/12/22 13:35:16;;;;;;;;;;;11.70;99.90;;;;;;7341750;19;110761;-85
2022/12/22 13:38:02;;;;;;;;;;;11.70;99.90;;;;;;7343660;19;108207;-85
2022/12/22 13:40:42;;;;;;;;;;;11.70;99.90;;;;;;7342607;19;109516;-85
2022/12/22 13:43:11;;;;;;;;;;;11.70;99.90;;;;;;7339916;19;110598;-86
2022/12/22 13:45:40;;;;;;;;;;;11.70;99.90;;;;;;7340383;19;108634;-85
2022/12/22 13:48:09;;;;;;;;;;;11.60;99.90;;;;;;7340795;19;108806;-85
2022/12/22 13:50:38;;;;;;;;;;;11.60;99.90;;;;;;7349085;19;110420;-85
2022/12/22 13:53:06;;;;;;;;;;;11.60;99.90;;;;;;7342504;19;109609;-85
2022/12/22 13:55:35;;;;;;;;;;;11.50;99.90;;;;;;7340543;19;111163;-85
2022/12/22 13:58:05;;;;;;;;;;;11.50;99.90;;;;;;7339765;19;108520;-85
2022/12/22 14:00:32;;;;;;;;;;;11.40;99.90;;;;;;7341691;19;109351;-86
2022/12/22 14:02:59;;;;;;;;;;;11.40;99.90;;;;;;7341766;19;110198;-85
2022/12/22 14:05:31;;;;;;;;;;;11.30;99.90;;;;;;7340792;19;108782;-85
2022/12/22 14:07:59;;;;;;;;;;;11.30;99.90;;;;;;7339783;19;109650;-85
2022/12/22 14:10:27;;;;;;;;;;;11.20;99.90;;;;;;7341082;19;111547;-85
2022/12/22 14:12:54;;;;;;;;;;;11.20;99.90;;;;;;7346711;19;108473;-85
2022/12/22 14:15:21;;;;;;;;;;;11.20;99.90;;;;;;7339887;19;110403;-85
2022/12/22 14:17:48;;;;;;;;;;;11.20;99.90;;;;;;7341357;19;108871;-84
2022/12/22 14:20:27;;;;;;;;;;;11.20;99.90;;;;;;7342353;19;109457;-85
2022/12/22 14:23:05;;;;;;;;;;;11.20;99.90;;;;;;7339986;19;111098;-85
2022/12/22 14:25:36;;;;;;;;;;;11.10;99.90;;;;;;7341167;19;108534;-85
2022/12/22 14:28:04;;;;;;;;;;;11.10;99.90;;;;;;7337749;19;110198;-84
2022/12/22 14:30:37;;;;;;;;;;;11.10;99.90;;;;;;7341618;19;110499;-84
2022/12/22 14:33:25;;;;;;;;;;;11.00;99.90;;;;;;7345624;19;108476;-85
2022/12/22 14:36:10;;;;;;;;;;;11.00;99.90;;;;;;7337559;19;110625;-85
2022/12/22 14:38:39;;;;;;;;;;;11.00;99.90;;;;;;7339368;19;108480;-85
2022/12/22 14:41:39;;;;;;;;;;;11.00;99.90;;;;;;7338213;19;110843;-85
2022/12/22 14:43:57;;;;;;;;;;;11.00;99.90;;;;;;7339651;19;111281;-84
2022/12/22 14:46:24;;;;;;;;;;;11.00;99.90;;;;;;7339076;19;113193;-84
2022/12/22 14:48:52;;;;;;;;;;;11.00;99.90;;;;;;7340179;19;109091;-84
2022/12/22 14:51:19;;;;;;;;;;;11.00;99.90;;;;;;7340067;19;112183;-83
2022/12/22 14:53:54;;;;;;;;;;;11.00;99.90;;;;;;7338444;19;118401;-84
2022/12/22 14:56:21;;;;;;;;;;;10.90;99.90;;;;;;7342852;19;109400;-84
2022/12/22 14:58:48;;;;;;;;;;;10.90;99.90;;;;;;7338292;19;108494;-84
2022/12/22 15:01:18;;;;;;;;;;;10.90;99.90;;;;;;7336874;19;109558;-84
2022/12/22 15:04:04;;;;;;;;;;;11.00;99.90;;;;;;7339934;19;112988;-84
2022/12/22 15:06:35;;;;;;;;;;;11.00;99.90;;;;;;7338645;19;109297;-85
2022/12/22 15:09:05;;;;;;;;;;;11.00;99.90;;;;;;7340457;19;108750;-85
2022/12/22 15:11:32;;;;;;;;;;;11.00;99.90;;;;;;7337697;19;110281;-84
2022/12/22 15:14:00;;;;;;;;;;;11.00;99.90;;;;;;7337752;19;109816;-85
2022/12/22 15:16:27;;;;;;;;;;;10.90;99.90;;;;;;7337075;19;109664;-84
2022/12/22 15:18:54;;;;;;;;;;;11.00;99.90;;;;;;7348501;19;109926;-84
2022/12/22 15:21:21;;;;;;;;;;;11.00;99.90;;;;;;7343938;19;112580;-84
2022/12/22 15:23:48;;;;;;;;;;;11.00;99.90;;;;;;7344219;19;110682;-84
2022/12/22 15:26:15;;;;;;;;;;;11.00;99.90;;;;;;7344363;19;108851;-85
2022/12/22 15:28:42;;;;;;;;;;;11.00;99.90;;;;;;7345942;19;109570;-84
2022/12/22 15:31:12;;;;;;;;;;;11.00;99.90;;;;;;7345077;19;109921;-85
2022/12/22 15:33:39;;;;;;;;;;;11.00;99.90;;;;;;7345300;19;108621;-85
2022/12/22 15:36:10;;;;;;;;;;;11.00;99.90;;;;;;7342460;19;112275;-85
2022/12/22 15:38:38;;;;;;;;;;;11.00;99.90;;;;;;7344200;19;111127;-85
2022/12/22 15:41:05;;;;;;;;;;;11.00;99.90;;;;;;7351414;19;108304;-85
2022/12/22 15:43:34;;;;;;;;;;;11.00;99.90;;;;;;7341258;19;110606;-84
2022/12/22 15:46:21;;;;;;;;;;;11.00;99.90;;;;;;7342244;19;109570;-85
2022/12/22 15:48:48;;;;;;;;;;;11.00;99.90;;;;;;7344167;19;109598;-85
2022/12/22 15:51:21;;;;;;;;;;;11.00;99.90;;;;;;7345149;19;110323;-85
2022/12/22 15:53:48;;;;;;;;;;;11.00;99.90;;;;;;7343389;19;108440;-85
2022/12/22 15:56:17;;;;;;;;;;;11.10;99.90;;;;;;7342533;19;109861;-85
2022/12/22 15:58:45;;;;;;;;;;;11.10;99.90;;;;;;7343788;19;114298;-85
2022/12/22 16:01:12;;;;;;;;;;;11.00;99.90;;;;;;7344936;19;109128;-84
2022/12/22 16:03:39;;;;;;;;;;;11.10;99.90;;;;;;7349095;19;108822;-85
2022/12/22 16:06:12;;;;;;;;;;;11.10;99.90;;;;;;7345156;19;108380;-85
2022/12/22 16:08:40;;;;;;;;;;;11.10;99.90;;;;;;7341997;19;112126;-85
2022/12/22 16:11:08;;;;;;;;;;;11.10;99.90;;;;;;7341988;19;110260;-85
2022/12/22 16:13:35;;;;;;;;;;;11.10;99.90;;;;;;7346081;19;108944;-85
2022/12/22 16:16:02;;;;;;;;;;;11.20;99.90;;;;;;7342945;19;109266;-84
2022/12/22 16:18:29;;;;;;;;;;;11.20;99.90;;;;;;7341955;19;112742;-84
2022/12/22 16:21:00;;;;;;;;;;;11.20;99.90;;;;;;7342619;19;109560;-85
2022/12/22 16:23:27;;;;;;;;;;;11.20;99.90;;;;;;7344040;19;109105;-85
2022/12/22 16:25:54;;;;;;;;;;;11.30;99.90;;;;;;7347396;19;113802;-84
2022/12/22 16:28:27;;;;;;;;;;;11.30;99.90;;;;;;7337681;19;108878;-84
2022/12/22 16:30:55;;;;;;;;;;;11.40;99.90;;;;;;7342631;19;110988;-84
2022/12/22 16:33:22;;;;;;;;;;;11.40;99.90;;;;;;7345176;19;108390;-83
2022/12/22 16:35:49;;;;;;;;;;;11.50;99.90;;;;;;7340847;19;108709;-84
2022/12/22 16:38:15;;;;;;;;;;;11.50;99.90;;;;;;7342726;19;112994;-84
2022/12/22 16:40:46;;;;;;;;;;;11.40;99.90;;;;;;7341798;19;109293;-85
2022/12/22 16:43:24;;;;;;;;;;;11.50;99.90;;;;;;7338332;19;108711;-84
2022/12/22 16:46:10;;;;;;;;;;;11.50;99.90;;;;;;7347602;19;109088;-84
2022/12/22 16:48:39;;;;;;;;;;;11.50;99.90;;;;;;7344007;19;109649;-84
2022/12/22 16:51:06;;;;;;;;;;;11.50;99.90;;;;;;7342821;19;110291;-85
2022/12/22 16:53:34;;;;;;;;;;;11.50;99.90;;;;;;7342436;19;108666;-84
2022/12/22 16:56:01;;;;;;;;;;;11.50;99.90;;;;;;7342143;19;109442;-85
2022/12/22 16:58:28;;;;;;;;;;;11.60;99.90;;;;;;7339641;19;110500;-84
2022/12/22 17:00:55;;;;;;;;;;;11.60;99.90;;;;;;7341688;19;108681;-85
2022/12/22 17:03:23;;;;;;;;;;;11.60;99.90;;;;;;7339316;19;109963;-85
2022/12/22 17:05:53;;;;;;;;;;;11.60;99.90;;;;;;7338476;19;109699;-85
2022/12/22 17:08:25;;;;;;;;;;;11.60;99.90;;;;;;7343951;19;108307;-86
2022/12/22 17:10:52;;;;;;;;;;;11.60;99.90;;;;;;7339080;19;110929;-86
2022/12/22 17:13:20;;;;;;;;;;;11.60;99.90;;;;;;7336812;19;109111;-85
2022/12/22 17:15:47;;;;;;;;;;;11.60;99.90;;;;;;7338526;19;109136;-86
2022/12/22 17:18:15;;;;;;;;;;;11.60;99.90;;;;;;7336116;19;110480;-85
2022/12/22 17:20:42;;;;;;;;;;;11.60;99.90;;;;;;7338749;19;108625;-86
2022/12/22 17:23:21;;;;;;;;;;;11.70;99.90;;;;;;7339558;19;110912;-85
2022/12/22 17:25:48;;;;;;;;;;;11.70;99.90;;;;;;7336312;19;110312;-86
2022/12/22 17:28:15;;;;;;;;;;;11.70;99.90;;;;;;7335826;19;109957;-86
2022/12/22 17:30:42;;;;;;;;;;;11.70;99.90;;;;;;7342220;19;109318;-87
2022/12/22 17:33:14;;;;;;;;;;;11.70;99.90;;;;;;7337678;19;109350;-89
2022/12/22 17:35:41;;;;;;;;;;;11.70;99.90;;;;;;7337241;19;109284;-86
2022/12/22 17:38:11;;;;;;;;;;;11.80;99.90;;;;;;7337364;19;110215;-87
2022/12/22 17:40:38;;;;;;;;;;;11.80;99.90;;;;;;7335493;19;108510;-87
2022/12/22 17:43:05;;;;;;;;;;;11.80;99.90;;;;;;7341007;19;110463;-90
2022/12/22 17:45:32;;;;;;;;;;;11.90;99.90;;;;;;7343166;19;112958;-84
2022/12/22 17:47:59;;;;;;;;;;;11.90;99.90;;;;;;7341666;19;109491;-84
2022/12/22 17:50:26;;;;;;;;;;;11.90;99.90;;;;;;7339502;19;110558;-84
2022/12/22 17:52:54;;;;;;;;;;;11.90;99.90;;;;;;7344515;19;110575;-83
2022/12/22 17:55:25;;;;;;;;;;;12.00;99.90;;;;;;7338532;19;109300;-83
2022/12/22 17:58:13;;;;;;;;;;;12.00;99.90;;;;;;7338896;19;112129;-83
2022/12/22 18:00:40;;;;;;;;;;;12.00;99.90;;;;;;7340243;19;109646;-83
2022/12/22 18:03:12;;;;;;;;;;;12.00;99.90;;;;;;7334707;19;109750;-83
2022/12/22 18:05:41;;;;;;;;;;;12.00;99.90;;;;;;7336154;19;111711;-83